Thursday, June 29, 2017, 10:07 AM EDT
Back to Local

KAGC, Pittsburgh Allegheny Cty.

Location: West Mifflin, PA, United States Lat: 40.35
Local Time: 10:07 AM EDT (14:07 GMT) Lon: -79.917
Time Zone: US/Eastern Elev: 1253 ft

Show me the last for .
Show Coded

Time T Td Feel RH Dir Speed Gust Alt SLP Vis Weather Sky Remarks
2017-06-29 09:53 72 57 76 59 200° 9 20 30.07 30.06 10 FEW055 None
2017-06-29 08:53 67 55 - 65 190° 12 - 30.09 30.09 10 SCT070 None
2017-06-29 07:53 63 52 - 67 190° 12 - 30.09 30.09 10 CLR 6-hr Min Temp (8am): 57.9°F
6-hr Max Temp (8am): 63.0°F
2017-06-29 06:53 60 50 - 69 180° 9 - 30.09 30.09 10 CLR None
2017-06-29 05:53 60 49 - 66 180° 9 - 30.08 30.08 10 CLR None
2017-06-29 04:53 60 50 - 69 170° 8 - 30.08 30.07 10 CLR None
2017-06-29 03:53 61 50 - 67 170° 8 - 30.06 30.06 10 CLR None
2017-06-29 02:53 60 50 - 69 170° 8 - 30.07 30.07 10 CLR None
2017-06-29 01:53 62 51 - 67 170° 5 - 30.09 30.08 10 CLR 6-hr Min Temp (2am): 62.1°F
6-hr Max Temp (2am): 71.1°F
2017-06-29 00:53 63 51 - 65 180° 6 - 30.09 30.09 10 CLR 24-hr Min Temp (1am): 50.0°F
24-hr Max Temp (1am): 73.9°F
2017-06-28 23:53 63 50 - 62 170° 5 - 30.09 30.09 10 CLR None
2017-06-28 22:53 65 51 - 60 180° 7 - 30.08 30.08 10 CLR None
2017-06-28 21:53 66 51 - 58 170° 6 - 30.09 30.09 10 CLR None
2017-06-28 20:53 68 50 - 52 180° 7 - 30.09 30.09 10 CLR None
2017-06-28 19:53 71 49 76 45 200° 6 - 30.11 30.11 10 CLR 6-hr Min Temp (8pm): 71.1°F
6-hr Max Temp (8pm): 73.9°F
2017-06-28 18:53 73 51 76 46 170° 8 - 30.11 30.11 10 CLR None
2017-06-28 17:53 73 48 76 41 200° 9 - 30.12 30.12 10 CLR None
2017-06-28 16:53 74 48 - 39 170° 6 - 30.13 30.14 10 CLR None
2017-06-28 15:53 73 46 - 38 220° 8 - 30.15 30.15 10 CLR None
2017-06-28 14:53 74 45 - 35 - - - 30.16 30.16 10 CLR None
2017-06-28 13:53 74 45 - 35 Variable 6 - 30.17 30.17 10 CLR 6-hr Min Temp (2pm): 55.0°F
6-hr Max Temp (2pm): 73.9°F
2017-06-28 12:53 72 46 - 39 250° 9 - 30.19 30.19 10 FEW060 None
2017-06-28 11:53 71 46 75 40 - - - 30.20 30.19 10 FEW050 None
2017-06-28 10:53 69 47 - 45 Variable 3 - 30.20 30.20 10 CLR None

Support USWX by starting your Amazon purchase here.